Dundee, Texas
Current Conditions -  °F | °C
As of 11:15 PM on Wednesday 22 Oct 2014 (Local Time) from KCWC Reporting Station
Scattered Clouds Scattered Clouds  
Wind Chill: 19°   Ceiling: Unl
Heat Index: 19°   Visibility: 10mi
Dew Point: 16°   Wind: 3mph
Humidity: 83%   Direction: 100°E
Pressure: 30.11"   Gusts: NA
Location:  33.6107°N, 98.6955°W
Report Text: KCWC 230415Z AUTO 10003KT 10SM SCT110 19/16 A3011 RMK AO2 T01870158
Loading
Personal Weather Stations






























Interactive Weather Map
Tropical Storm Tracking
New forecast layout! Learn more

10-Day Weather Forecast

Advertisements
Track Severe Weather on mobile